• Join FlightAware (Why Join?)
  • Login
  • US Flag 
07:25PM EST


 

Airport Tracker/Info


-or-


 

Live Flight TrackerFlight Track Log ✈ ASQ2517 ✈ 29-Jul-2013 ✈ KDFW - KAMA

Flight Track Log - Related Links

Times and Time Zones

All times are in EDT time to prevent confusion due to time zone crossing. See the ASQ2517 flight status page for this flight to view local times or setup timezone preferences in your user account.

Time Position Orientation Groundspeed Altitude Reporting Facility
EDT Latitude Longitude Course Direction KTS MPH feet Rate Location/Type
10:49PM 32.8833 -97.0500 180° South 156 180 1,400  Level Dallas / Fort Worth TRACON
10:50PM 32.8500 -97.0500 180° South 164 189 2,500 1,800 Climbing Dallas / Fort Worth TRACON
10:51PM 32.8000 -97.0667 196° South 213 245 4,300 1,860 Climbing Dallas / Fort Worth TRACON
10:52PM 32.7578 -97.1269 230° Southwest 263 303 6,800 2,040 Climbing Fort Worth Center
10:53PM 32.7706 -97.2256 279° West 263 303 9,000 1,980 Climbing Fort Worth Center
10:54PM 32.8061 -97.2972 301° West 275 316 10,800 1,860 Climbing Fort Worth Center
10:55PM 32.8625 -97.3861 307° West 294 338 12,800 1,740 Climbing Fort Worth Center
10:56PM 32.9106 -97.4556 310° West 307 353 14,300 1,500 Climbing Fort Worth Center
10:57PM 32.9711 -97.5497 307° West 319 367 15,900 1,440 Climbing Fort Worth Center
10:58PM 33.0272 -97.6364 308° West 329 379 17,200 900 Climbing Fort Worth Center
10:59PM 33.0833 -97.7333 305° West 344 396 17,700 420 Climbing Fort Worth Center
11:00PM 33.1247 -97.8475 293° West 360 414 18,100 480 Climbing Fort Worth Center
11:01PM 33.1639 -97.9694 291° West 382 440 18,700 480 Climbing Fort Worth Center
11:02PM 33.2011 -98.0911 290° West 392 451 19,100 480 Climbing Fort Worth Center
11:03PM 33.2419 -98.2158 291° West 402 463 19,700 480 Climbing Fort Worth Center
11:04PM 33.2828 -98.3428 291° West 407 468 20,100 420 Climbing Fort Worth Center
11:05PM 33.3214 -98.4700 290° West 414 476 20,600 480 Climbing Fort Worth Center
11:06PM 33.3581 -98.5872 291° West 409 471 21,100 480 Climbing Fort Worth Center
11:07PM 33.3986 -98.7147 291° West 409 471 21,600 420 Climbing Fort Worth Center
11:08PM 33.4492 -98.8500 294° West 409 471 22,000 180 Climbing Fort Worth Center
11:09PM 33.5189 -98.9608 307° West 409 471 22,000  Level Fort Worth Center
11:10PM 33.5906 -99.0767 307° West 428 493 22,000  Level Fort Worth Center
11:11PM 33.6661 -99.1881 309° West 433 498 22,000  Level Fort Worth Center
11:12PM 33.7333 -99.2942 307° West 438 504 22,000  Level Fort Worth Center
11:13PM 33.8067 -99.4133 307° West 444 511 22,000  Level Fort Worth Center
11:14PM 33.8903 -99.5353 310° West 444 511 22,000  Level Fort Worth Center
11:15PM 33.9633 -99.6522 307° West 439 505 22,000  Level Fort Worth Center
11:16PM 34.0342 -99.7694 306° West 439 505 22,000  Level Fort Worth Center
11:17PM 34.1069 -99.8892 306° West 444 511 22,000  Level Fort Worth Center
11:18PM 34.1819 -100.0019 309° West 444 511 22,000  Level Fort Worth Center
11:19PM 34.2525 -100.1169 307° West 444 511 22,000  Level Fort Worth Center
11:20PM 34.3250 -100.2350 307° West 444 511 22,000  Level Fort Worth Center
11:21PM 34.4042 -100.3625 307° West 433 498 22,000  Level Albuquerque Center
11:22PM 34.4772 -100.4789 307° West 434 499 22,000  Level Albuquerque Center
11:23PM 34.5631 -100.6189 307° West 432 497 22,000 -120 Level Albuquerque Center
11:24PM 34.6344 -100.7350 307° West 432 497 21,800 -1,200 Descending Albuquerque Center
11:25PM 34.7058 -100.8536 306° West 434 499 19,600 -2,160 Descending Albuquerque Center
11:26PM 34.7767 -100.9697 307° West 431 496 17,400 -2,160 Descending Albuquerque Center
11:27PM 34.8436 -101.0783 307° West 410 472 15,200 -2,100 Descending Albuquerque Center
11:28PM 34.9081 -101.1858 306° West 399 459 13,100 -1,920 Descending Albuquerque Center
11:29PM 34.9675 -101.2725 310° West 343 395 11,300 -1,920 Descending Albuquerque Center
11:30PM 35.0461 -101.3528 320° Northwest 316 364 9,200 -1,860 Descending Albuquerque Center
11:31PM 35.1047 -101.4156 319° Northwest 297 342 7,500 -1,560 Descending Albuquerque Center
11:32PM 35.1608 -101.4811 316° Northwest 286 329 6,000 -960 Descending Albuquerque Center
11:33PM 35.2175 -101.5433 318° Northwest 281 323 5,600 -360 Descending Albuquerque Center
11:34PM 35.2589 -101.5886 318° Northwest 230 265 5,300 -420 Descending Albuquerque Center
11:35PM 35.2764 -101.6428 292° West 183 211 4,800 -540 Descending Albuquerque Center
11:37PM 35.2536 -101.6717 226° Southwest 143 165 4,200 -600 Descending Albuquerque Center
11:38PM 35.2286 -101.7036 226° Southwest 134 154 3,600 -600 Descending Albuquerque Center